Grand View, Canada
Current Conditions -  °F | °C
As of 5:00 PM on Saturday 20 Dec 2014 (Local Time) from CYDN Reporting Station
Overcast Overcast  
Wind Chill: 19°   Ceiling: 1400
Heat Index: 25°   Visibility: 9mi
Dew Point: 23°   Wind: 5mph
Humidity: 93%   Direction: 110°ESE
Pressure: 29.82"   Gusts: NA
Location:  51.17°N, 100.7°W
Report Text: CYDN 202300Z AUTO 11004KT 9SM OVC014 M04/M05 A2982 RMK SLP117
Loading
Personal Weather Stations






























Interactive Weather Map New forecast layout! Learn more

10-Day Weather Forecast

Advertisements
Track Severe Weather on mobile